Time;durP1;ratioP1;P1;durP2;ratioP2;P2;SDS_P1;SDS_P2;PMS_P1;PMS_P2;Temp;Humidity;BMP_temperature;BMP_pressure;BME280_temperature;BME280_humidity;BME280_pressure;Samples;Min_cycle;Max_cycle;Signal;HPM_P1;HPM_P2
2023/09/19 00:02:33;;;;;;;0.52;0.20;;;;;;;17.13;77.56;97199.91;10334117;28;20134;-64
2023/09/19 00:07:54;;;;;;;1.20;0.32;;;;;;;17.05;77.61;97200.34;10333561;28;20130;-64
2023/09/19 00:13:15;;;;;;;2.72;0.30;;;;;;;17.00;78.09;97198.78;10332633;28;20173;-64
2023/09/19 00:18:37;;;;;;;1.88;0.30;;;;;;;16.93;77.71;97197.13;10333335;28;20074;-64
2023/09/19 00:23:58;;;;;;;0.77;0.20;;;;;;;16.87;77.41;97203.28;10340808;28;20129;-64
2023/09/19 00:29:19;;;;;;;2.30;0.30;;;;;;;16.89;77.67;97205.47;10341487;28;20093;-65
2023/09/19 00:34:40;;;;;;;3.00;0.90;;;;;;;16.91;77.64;97207.63;10326552;28;20133;-65
2023/09/19 00:40:00;;;;;;;0.77;0.30;;;;;;;16.91;77.70;97221.72;10341267;28;20481;-63
2023/09/19 00:45:21;;;;;;;3.30;0.63;;;;;;;16.94;77.41;97218.31;10340838;28;20070;-64
2023/09/19 00:50:43;;;;;;;0.85;0.20;;;;;;;16.95;77.26;97221.84;10326148;28;20061;-64
2023/09/19 00:56:07;;;;;;;3.03;0.20;;;;;;;16.89;77.29;97211.09;10312752;28;20054;-65
2023/09/19 01:01:28;;;;;;;1.23;0.38;;;;;;;16.88;77.22;97210.34;10313311;28;20069;-63
2023/09/19 01:06:53;;;;;;;0.95;0.32;;;;;;;16.91;77.44;97213.25;10339260;28;20081;-63
2023/09/19 01:12:13;;;;;;;1.52;0.40;;;;;;;16.86;77.30;97210.28;10325807;28;20445;-64
2023/09/19 01:17:40;;;;;;;2.30;0.30;;;;;;;16.87;77.00;97211.00;10339502;28;20166;-63
2023/09/19 01:23:20;;;;;;;0.70;0.30;;;;;;;16.78;77.23;97212.09;10338875;28;20458;-63
2023/09/19 01:29:08;;;;;;;1.95;0.57;;;;;;;16.68;77.15;97206.09;10338700;28;20126;-63
2023/09/19 01:34:48;;;;;;;3.17;0.38;;;;;;;16.59;78.11;97197.34;10338303;28;20073;-63
2023/09/19 01:40:11;;;;;;;0.93;0.30;;;;;;;16.61;78.04;97199.53;10338735;28;20070;-63
2023/09/19 01:45:52;;;;;;;3.75;0.30;;;;;;;16.65;77.40;97204.59;10310925;28;20046;-63
2023/09/19 01:51:21;;;;;;;0.80;0.40;;;;;;;16.70;77.66;97204.09;10323920;28;20050;-63
2023/09/19 01:56:48;;;;;;;1.20;0.30;;;;;;;16.79;77.64;97200.19;10323438;28;20448;-63
2023/09/19 02:02:09;;;;;;;1.85;0.38;;;;;;;16.94;77.10;97206.31;10309980;28;20493;-63
2023/09/19 02:07:31;;;;;;;2.10;0.45;;;;;;;17.03;76.82;97208.03;10323209;28;20125;-63
2023/09/19 02:12:52;;;;;;;1.10;0.53;;;;;;;17.07;76.59;97205.34;10323234;28;20121;-63
2023/09/19 02:18:14;;;;;;;0.60;0.30;;;;;;;17.09;76.59;97199.78;10322675;28;20057;-65
2023/09/19 02:23:35;;;;;;;0.80;0.40;;;;;;;17.14;76.62;97207.00;10337182;28;20154;-63
2023/09/19 02:28:56;;;;;;;1.23;0.40;;;;;;;17.16;76.23;97204.94;10322502;28;20094;-63
2023/09/19 02:34:17;;;;;;;0.90;0.30;;;;;;;17.11;76.18;97208.31;10337052;28;20508;-63
2023/09/19 02:39:38;;;;;;;1.45;0.30;;;;;;;17.09;76.07;97199.78;10336588;28;20141;-63
2023/09/19 02:44:59;;;;;;;1.80;0.40;;;;;;;17.12;76.19;97195.66;10321070;28;20508;-63
2023/09/19 02:50:19;;;;;;;3.05;0.50;;;;;;;17.11;75.86;97197.03;10307824;28;20540;-63
2023/09/19 02:55:40;;;;;;;4.82;0.50;;;;;;;17.11;76.11;97194.22;10321244;28;20074;-63
2023/09/19 03:01:08;;;;;;;1.73;0.40;;;;;;;17.10;75.75;97196.31;10320988;28;20126;-64
2023/09/19 03:06:30;;;;;;;0.93;0.30;;;;;;;17.10;75.75;97184.31;10320697;28;20073;-64
2023/09/19 03:11:51;;;;;;;2.53;0.40;;;;;;;17.11;75.97;97185.75;10320494;28;20105;-64
2023/09/19 03:17:14;;;;;;;2.17;0.30;;;;;;;17.13;75.84;97191.44;10335017;28;20078;-64
2023/09/19 03:22:35;;;;;;;1.20;0.43;;;;;;;17.12;75.66;97193.56;10320526;28;20089;-64
2023/09/19 03:27:57;;;;;;;2.50;0.70;;;;;;;17.07;75.58;97194.78;10306736;28;20042;-64
2023/09/19 03:33:20;;;;;;;2.30;0.40;;;;;;;17.05;75.94;97188.34;10333534;28;20066;-64
2023/09/19 03:38:41;;;;;;;4.18;1.05;;;;;;;16.99;75.75;97193.81;10319643;28;20066;-64
2023/09/19 03:44:02;;;;;;;2.28;0.45;;;;;;;16.94;76.29;97206.31;10333431;28;20097;-64
2023/09/19 03:49:24;;;;;;;2.65;0.80;;;;;;;16.90;76.48;97200.56;10333032;28;20125;-64
2023/09/19 03:54:45;;;;;;;2.70;0.47;;;;;;;16.84;76.29;97201.78;10333104;28;20096;-64
2023/09/19 04:00:12;;;;;;;1.30;0.60;;;;;;;16.80;76.69;97210.09;10319318;28;20500;-64
2023/09/19 04:05:34;;;;;;;2.63;0.60;;;;;;;16.78;76.98;97204.38;10332750;28;20090;-64
2023/09/19 04:10:55;;;;;;;2.78;0.82;;;;;;;16.73;77.33;97219.72;10335208;28;20550;-63
2023/09/19 04:16:16;;;;;;;3.63;0.82;;;;;;;16.75;77.57;97222.59;10333238;28;20117;-63
2023/09/19 04:21:37;;;;;;;4.20;0.80;;;;;;;16.76;77.72;97226.84;10318814;28;20168;-64
2023/09/19 04:26:59;;;;;;;2.25;0.50;;;;;;;16.70;78.09;97235.09;10318595;28;20169;-63
2023/09/19 04:32:20;;;;;;;1.60;0.70;;;;;;;16.71;78.20;97242.19;10332213;28;20077;-64
2023/09/19 04:37:41;;;;;;;2.50;0.60;;;;;;;16.73;78.30;97259.16;10318672;28;20083;-63
2023/09/19 04:43:02;;;;;;;2.60;0.60;;;;;;;16.75;78.73;97262.03;10332866;28;20046;-63
2023/09/19 04:48:26;;;;;;;2.50;0.80;;;;;;;16.74;78.53;97269.06;10331951;28;20118;-64
2023/09/19 04:53:48;;;;;;;2.72;0.63;;;;;;;16.71;78.64;97270.38;10332442;28;20085;-64
2023/09/19 04:59:10;;;;;;;2.65;0.82;;;;;;;16.73;78.72;97284.53;10318262;28;20042;-64
2023/09/19 05:04:32;;;;;;;2.90;0.73;;;;;;;16.75;78.78;97284.59;10318154;28;20089;-64
2023/09/19 05:09:52;;;;;;;2.38;0.73;;;;;;;16.78;78.62;97294.56;10324415;28;20097;-64
2023/09/19 05:15:19;;;;;;;1.88;0.60;;;;;;;16.82;78.77;97300.34;10339672;28;20474;-64
2023/09/19 05:20:39;;;;;;;3.30;0.90;;;;;;;16.90;78.56;97307.66;10339331;28;20081;-64
2023/09/19 05:26:01;;;;;;;2.35;0.73;;;;;;;16.94;78.36;97316.25;10339910;28;20050;-64
2023/09/19 05:31:24;;;;;;;5.10;0.80;;;;;;;17.01;78.14;97320.75;10339025;28;20070;-64
2023/09/19 05:36:45;;;;;;;1.67;0.65;;;;;;;17.02;77.76;97325.00;10338431;28;20448;-64
2023/09/19 05:42:08;;;;;;;2.47;0.50;;;;;;;17.04;78.09;97325.78;10323541;28;20126;-64
2023/09/19 05:47:28;;;;;;;1.57;0.63;;;;;;;17.11;77.78;97333.09;10338816;28;20497;-64
2023/09/19 05:52:52;;;;;;;2.40;0.60;;;;;;;17.17;77.53;97333.31;10323513;28;20126;-64
2023/09/19 05:58:17;;;;;;;3.78;0.88;;;;;;;17.20;77.32;97339.75;10323849;28;20045;-63
2023/09/19 06:03:38;;;;;;;9.70;1.15;;;;;;;17.33;77.23;97341.63;10337990;28;20133;-64
2023/09/19 06:08:59;;;;;;;8.15;0.60;;;;;;;17.52;76.71;97350.72;10322884;28;20473;-64
2023/09/19 06:14:20;;;;;;;2.70;0.90;;;;;;;17.62;76.21;97371.53;10337204;28;20122;-64
2023/09/19 06:19:43;;;;;;;3.53;0.43;;;;;;;17.83;75.66;97372.22;10337166;28;20181;-64
2023/09/19 06:25:04;;;;;;;6.00;0.75;;;;;;;18.12;74.91;97390.81;10322416;28;20545;-64
2023/09/19 06:30:29;;;;;;;3.55;0.70;;;;;;;18.40;74.51;97388.91;10322649;28;20122;-64
2023/09/19 06:35:52;;;;;;;1.80;0.82;;;;;;;18.60;72.83;97403.66;10336186;28;20174;-64
2023/09/19 06:41:13;;;;;;;;;;;;;;;18.63;71.98;97417.88;10336828;28;20101;-64
2023/09/19 06:46:34;;;;;;;1.25;0.43;;;;;;;18.76;71.33;97428.19;10335872;28;19957;-64
2023/09/19 06:51:57;;;;;;;1.90;0.70;;;;;;;19.02;70.70;97426.16;10335699;28;20497;-64
2023/09/19 06:57:17;;;;;;;2.47;0.63;;;;;;;19.19;69.59;97426.59;10336147;28;20073;-63
2023/09/19 07:02:40;;;;;;;1.77;0.68;;;;;;;19.30;69.05;97437.56;10320763;28;20451;-64
2023/09/19 07:08:01;;;;;;;2.97;0.88;;;;;;;19.22;68.52;97439.44;10334881;28;20073;-63
2023/09/19 07:13:22;;;;;;;2.15;0.68;;;;;;;19.34;68.40;97439.78;10306690;28;20050;-63
2023/09/19 07:18:45;;;;;;;3.42;0.60;;;;;;;19.90;67.38;97454.09;10334684;28;20117;-64
2023/09/19 07:24:06;;;;;;;2.85;0.90;;;;;;;20.86;65.74;97448.66;10334457;28;20172;-64
2023/09/19 07:29:26;;;;;;;1.20;0.50;;;;;;;21.87;62.54;97449.28;10333144;28;20065;-64
2023/09/19 07:34:47;;;;;;;2.65;0.60;;;;;;;21.49;61.80;97457.78;10334473;28;20042;-64
2023/09/19 07:40:11;;;;;;;3.75;0.70;;;;;;;20.68;61.54;97468.81;10334261;28;20087;-64
2023/09/19 07:45:33;;;;;;;3.00;0.50;;;;;;;20.37;62.26;97466.59;10334300;28;20153;-64
2023/09/19 07:50:54;;;;;;;2.83;0.60;;;;;;;20.23;62.11;97464.84;10319357;28;20134;-64
2023/09/19 07:56:15;;;;;;;2.70;0.77;;;;;;;21.37;61.51;97472.47;10333865;28;20506;-64
2023/09/19 08:01:37;;;;;;;3.28;0.60;;;;;;;21.76;59.73;97473.97;10333311;28;20142;-64
2023/09/19 08:07:00;;;;;;;2.35;0.47;;;;;;;21.57;59.86;97467.19;10333573;28;20117;-64
2023/09/19 08:12:24;;;;;;;1.52;0.40;;;;;;;23.85;56.25;97484.31;10333358;28;20073;-64
2023/09/19 08:17:45;;;;;;;1.90;0.43;;;;;;;23.80;52.75;97491.38;10332931;28;20169;-64
2023/09/19 08:23:05;;;;;;;2.10;0.57;;;;;;;22.87;53.08;97485.13;10333169;28;20050;-64
2023/09/19 08:28:29;;;;;;;2.88;0.50;;;;;;;22.09;53.93;97495.19;10332844;28;20569;-64
2023/09/19 08:33:51;;;;;;;1.25;0.30;;;;;;;21.92;54.47;97496.28;10332698;28;20059;-65
2023/09/19 08:39:13;;;;;;;1.58;0.52;;;;;;;21.76;54.20;97498.81;10332728;28;20463;-64
2023/09/19 08:44:36;;;;;;;1.43;0.30;;;;;;;21.74;55.42;97498.78;10339195;28;20195;-63
2023/09/19 08:50:19;;;;;;;1.98;0.43;;;;;;;24.70;50.82;97505.09;10340233;28;20170;-65
2023/09/19 08:55:40;;;;;;;;;;;;;;;25.98;46.52;97518.72;10325704;28;20066;-65
2023/09/19 09:01:02;;;;;;;2.45;0.40;;;;;;;30.13;41.98;97534.00;10339146;28;19953;-65
2023/09/19 09:06:23;;;;;;;2.25;0.30;;;;;;;36.39;32.83;97533.81;10312058;28;20046;-66
2023/09/19 09:11:44;;;;;;;1.95;0.40;;;;;;;38.54;28.20;97534.72;10339657;28;20074;-68
2023/09/19 09:17:05;;;;;;;1.65;0.30;;;;;;;37.98;24.59;97536.56;10339527;28;20130;-67
2023/09/19 09:22:26;;;;;;;0.98;0.30;;;;;;;34.10;27.04;97529.19;10324711;28;20086;-67
2023/09/19 09:27:59;;;;;;;1.30;0.50;;;;;;;29.62;30.63;97525.94;10339180;28;20121;-67
2023/09/19 09:33:21;;;;;;;1.30;0.40;;;;;;;27.10;33.73;97528.16;10311948;28;20097;-64
2023/09/19 09:38:46;;;;;;;2.20;0.45;;;;;;;28.29;37.68;97519.91;10338606;28;20150;-64
2023/09/19 09:44:20;;;;;;;0.75;0.25;;;;;;;38.15;25.81;97521.97;10338724;28;20077;-67
2023/09/19 09:49:41;;;;;;;1.45;0.40;;;;;;;36.18;26.72;97509.88;10338193;28;20121;-67
2023/09/19 09:55:07;;;;;;;1.20;0.30;;;;;;;39.67;21.69;97515.97;10309825;28;20050;-67
2023/09/19 10:00:42;;;;;;;1.98;0.40;;;;;;;36.82;21.84;97520.44;10323267;28;20061;-67
2023/09/19 10:06:24;;;;;;;1.20;0.30;;;;;;;34.53;25.25;97512.72;10324978;28;20058;-67
2023/09/19 10:11:47;;;;;;;2.53;0.40;;;;;;;39.38;19.98;97516.72;10315106;28;20078;-67
2023/09/19 10:17:09;;;;;;;2.10;0.30;;;;;;;36.47;20.91;97530.56;10337364;28;20042;-67
2023/09/19 10:22:32;;;;;;;1.67;0.35;;;;;;;34.69;23.28;97533.19;10322558;28;20058;-66
2023/09/19 10:27:53;;;;;;;1.25;0.32;;;;;;;34.38;24.41;97536.34;10322569;28;20062;-66
2023/09/19 10:33:15;;;;;;;1.58;0.30;;;;;;;41.33;21.19;97534.50;10322281;28;20081;-67
2023/09/19 10:38:36;;;;;;;2.63;0.20;;;;;;;43.70;16.77;97529.50;10336328;28;20093;-68
2023/09/19 10:43:57;;;;;;;1.10;0.30;;;;;;;49.12;12.11;97524.88;10308070;28;20117;-67
2023/09/19 10:49:19;;;;;;;1.33;0.30;;;;;;;49.82;10.37;97519.09;10321603;28;20094;-68
2023/09/19 10:54:43;;;;;;;1.92;0.30;;;;;;;43.71;12.99;97505.16;10335545;28;20604;-69
2023/09/19 11:00:24;;;;;;;0.70;0.20;;;;;;;45.95;11.96;97511.41;10308369;28;20070;-68
2023/09/19 11:06:00;;;;;;;1.20;0.40;;;;;;;43.37;13.11;97517.09;10322472;28;20065;-67
2023/09/19 11:11:52;;;;;;;0.43;0.20;;;;;;;45.26;11.93;97513.78;10335350;28;20073;-68
2023/09/19 11:17:19;;;;;;;0.45;0.20;;;;;;;41.08;13.28;97512.50;10334915;28;20177;-68
2023/09/19 11:22:48;;;;;;;1.17;0.32;;;;;;;41.89;15.39;97506.22;10334858;28;20074;-67
2023/09/19 11:28:22;;;;;;;1.38;0.30;;;;;;;44.51;13.13;97502.47;10334502;28;20197;-68
2023/09/19 11:33:46;;;;;;;0.73;0.30;;;;;;;48.08;10.50;97512.84;10334237;28;20516;-67
2023/09/19 11:39:14;;;;;;;0.68;0.30;;;;;;;46.15;8.82;97515.00;10333668;28;20069;-67
2023/09/19 11:44:35;;;;;;;3.63;0.40;;;;;;;38.44;13.10;97503.84;10307986;28;20054;-67
2023/09/19 11:49:56;;;;;;;1.52;0.38;;;;;;;35.12;17.05;97511.50;10333517;28;20069;-67
2023/09/19 11:55:21;;;;;;;1.50;0.50;;;;;;;33.81;18.74;97494.56;10305966;28;20137;-64
2023/09/19 12:00:43;;;;;;;2.22;0.43;;;;;;;31.79;20.93;97503.88;10306566;28;20075;-64
2023/09/19 12:06:11;;;;;;;0.82;0.30;;;;;;;31.31;21.58;97512.00;10305712;28;20074;-64
2023/09/19 12:11:33;;;;;;;2.67;0.38;;;;;;;30.82;21.61;97515.69;10332929;28;20076;-64
2023/09/19 12:16:55;;;;;;;0.63;0.22;;;;;;;30.14;22.12;97506.63;10332281;28;20103;-64
2023/09/19 12:22:17;;;;;;;2.47;0.38;;;;;;;30.14;22.48;97495.13;10332841;28;20125;-64
2023/09/19 12:27:52;;;;;;;1.17;0.40;;;;;;;30.35;22.86;97492.66;10332846;28;20070;-64
2023/09/19 12:33:24;;;;;;;2.00;0.50;;;;;;;29.95;22.54;97497.50;10319087;28;20050;-64
2023/09/19 12:38:47;;;;;;;0.93;0.45;;;;;;;28.92;24.14;97493.59;10333013;28;20057;-64
2023/09/19 12:44:11;;;;;;;1.33;0.30;;;;;;;28.90;24.88;97490.75;10332543;28;20098;-64
2023/09/19 12:49:32;;;;;;;2.03;0.40;;;;;;;29.03;24.81;97480.56;10304825;28;20050;-64
2023/09/19 12:54:53;;;;;;;3.30;0.35;;;;;;;29.15;24.87;97485.50;10332192;28;20050;-63
2023/09/19 13:00:14;;;;;;;1.50;0.40;;;;;;;28.68;25.03;97486.63;10304029;28;20460;-64
2023/09/19 13:05:56;;;;;;;3.20;0.50;;;;;;;28.20;25.62;97490.53;10332505;28;20058;-63
2023/09/19 13:11:18;;;;;;;1.90;0.40;;;;;;;27.64;26.18;97478.59;10332264;28;20081;-64
2023/09/19 13:16:58;;;;;;;2.13;0.40;;;;;;;27.40;26.59;97472.94;10332078;28;20050;-63
2023/09/19 13:22:42;;;;;;;0.55;0.20;;;;;;;27.50;26.41;97472.91;10330779;28;20042;-63
2023/09/19 13:28:04;;;;;;;1.23;0.32;;;;;;;27.34;26.36;97465.09;10334069;28;20054;-64
2023/09/19 13:33:26;;;;;;;2.57;0.50;;;;;;;27.03;26.60;97467.34;10338981;28;20038;-63
2023/09/19 13:38:48;;;;;;;1.85;0.50;;;;;;;26.84;27.28;97473.78;10324000;28;20473;-64
2023/09/19 13:44:12;;;;;;;3.80;0.43;;;;;;;26.96;27.27;97479.50;10338575;28;20166;-64
2023/09/19 13:49:34;;;;;;;3.58;0.40;;;;;;;26.53;27.06;97480.22;10338680;28;20054;-64
2023/09/19 13:54:58;;;;;;;2.65;0.38;;;;;;;26.38;27.12;97483.78;10338213;28;20073;-64
2023/09/19 14:00:19;;;;;;;1.85;0.40;;;;;;;26.39;27.43;97473.78;10337971;28;20452;-64
2023/09/19 14:05:40;;;;;;;0.80;0.32;;;;;;;26.58;27.90;97480.22;10337248;28;20113;-63
2023/09/19 14:11:06;;;;;;;0.80;0.40;;;;;;;26.81;27.71;97473.06;10337698;28;20042;-64
2023/09/19 14:16:29;;;;;;;2.25;0.40;;;;;;;26.86;27.55;97470.91;10322753;28;20082;-64
2023/09/19 14:21:51;;;;;;;0.80;0.38;;;;;;;26.32;28.12;97464.44;10337045;28;20454;-63
2023/09/19 14:27:11;;;;;;;2.28;0.40;;;;;;;25.64;29.15;97468.56;10337048;28;20074;-63
2023/09/19 14:32:33;;;;;;;1.60;0.43;;;;;;;25.25;29.60;97474.09;10321699;28;20050;-63
2023/09/19 14:37:54;;;;;;;1.25;0.40;;;;;;;25.13;29.84;97484.75;10335928;28;20105;-63
2023/09/19 14:43:14;;;;;;;2.03;0.40;;;;;;;24.94;30.53;97475.31;10335733;28;20504;-63
2023/09/19 14:48:38;;;;;;;0.82;0.32;;;;;;;24.80;31.09;97476.66;10336215;28;20066;-63
2023/09/19 14:54:01;;;;;;;3.80;0.43;;;;;;;24.95;30.91;97482.44;10335432;28;20166;-63
2023/09/19 14:59:22;;;;;;;;;;;;;;;24.74;30.80;97481.59;10336050;28;20076;-64
2023/09/19 15:04:46;;;;;;;0.82;0.40;;;;;;;24.55;30.81;97490.00;10335042;28;19949;-64
2023/09/19 15:10:09;;;;;;;2.70;0.57;;;;;;;24.43;31.06;97492.06;10321472;28;20169;-63
2023/09/19 15:15:31;;;;;;;0.95;0.52;;;;;;;24.21;31.12;97496.09;10335114;28;20074;-63
2023/09/19 15:20:51;;;;;;;3.05;0.40;;;;;;;24.30;31.75;97487.59;10334842;28;20066;-63
2023/09/19 15:26:13;;;;;;;1.88;0.40;;;;;;;24.38;31.07;97477.03;10334841;28;20078;-63
2023/09/19 15:31:38;;;;;;;6.13;0.53;;;;;;;24.06;31.10;97485.97;10320143;28;20066;-63
2023/09/19 15:36:59;;;;;;;2.30;0.50;;;;;;;23.83;31.60;97498.53;10334345;28;20133;-62
2023/09/19 15:42:20;;;;;;;4.95;0.65;;;;;;;23.53;32.02;97496.72;10333928;28;20038;-62
2023/09/19 15:47:42;;;;;;;3.03;0.70;;;;;;;23.22;32.96;97489.91;10333842;28;20046;-63
2023/09/19 15:53:03;;;;;;;1.65;0.50;;;;;;;23.01;33.69;97491.75;10333469;28;20058;-63
2023/09/19 15:58:24;;;;;;;1.88;0.80;;;;;;;22.80;33.94;97487.16;10318908;28;20066;-63
2023/09/19 16:03:47;;;;;;;3.20;0.60;;;;;;;22.60;34.13;97496.09;10333276;28;20054;-63
2023/09/19 16:09:08;;;;;;;3.67;0.63;;;;;;;22.34;34.92;97496.34;10333395;28;20129;-63
2023/09/19 16:14:30;;;;;;;1.67;0.57;;;;;;;22.05;35.30;97503.63;10318778;28;20113;-63
2023/09/19 16:19:51;;;;;;;2.72;0.50;;;;;;;21.77;35.70;97512.31;10333437;28;20118;-62
2023/09/19 16:25:12;;;;;;;4.88;0.60;;;;;;;21.54;36.22;97501.91;10333146;28;20077;-62
2023/09/19 16:30:38;;;;;;;3.88;0.70;;;;;;;21.33;36.16;97512.84;10333164;28;20117;-62
2023/09/19 16:35:59;;;;;;;1.30;0.40;;;;;;;21.11;37.28;97521.56;10332661;28;20512;-63
2023/09/19 16:41:21;;;;;;;3.42;0.50;;;;;;;20.93;37.39;97523.25;10304839;28;20077;-63
2023/09/19 16:46:43;;;;;;;2.20;0.60;;;;;;;20.73;37.57;97523.50;10318408;28;20062;-63
2023/09/19 16:52:04;;;;;;;4.18;0.75;;;;;;;20.49;37.95;97521.50;10332633;28;20358;-63
2023/09/19 16:57:25;;;;;;;2.40;0.50;;;;;;;20.30;38.44;97525.97;10332749;28;20073;-62
2023/09/19 17:02:46;;;;;;;2.85;0.80;;;;;;;20.11;38.73;97531.81;10334310;28;20089;-63
2023/09/19 17:08:12;;;;;;;3.40;0.60;;;;;;;19.93;39.58;97540.53;10340396;28;20477;-63
2023/09/19 17:13:33;;;;;;;1.90;0.60;;;;;;;19.76;39.22;97536.53;10339794;28;20054;-62
2023/09/19 17:18:55;;;;;;;3.30;0.70;;;;;;;19.60;39.59;97545.31;10339710;28;20039;-62
2023/09/19 17:24:16;;;;;;;1.60;0.57;;;;;;;19.51;39.98;97557.75;10325316;28;20066;-63
2023/09/19 17:29:37;;;;;;;3.47;0.70;;;;;;;19.36;40.58;97553.03;10339301;28;20070;-62
2023/09/19 17:34:58;;;;;;;2.05;0.75;;;;;;;19.21;40.54;97546.25;10339305;28;22438;-62
2023/09/19 17:40:19;;;;;;;3.90;0.57;;;;;;;19.12;40.96;97556.56;10338926;28;20046;-62
2023/09/19 17:45:39;;;;;;;1.85;0.70;;;;;;;19.02;41.20;97564.75;10338666;28;20057;-63
2023/09/19 17:51:03;;;;;;;3.80;0.80;;;;;;;18.93;41.38;97563.03;10338476;28;20074;-63
2023/09/19 17:56:24;;;;;;;2.65;0.60;;;;;;;18.85;41.80;97574.09;10338160;28;20066;-63
2023/09/19 18:01:45;;;;;;;3.15;0.63;;;;;;;18.76;41.81;97583.69;10337791;28;20050;-63
2023/09/19 18:07:06;;;;;;;2.88;0.75;;;;;;;18.66;42.39;97572.03;10337956;28;20046;-63
2023/09/19 18:12:27;;;;;;;3.65;0.60;;;;;;;18.55;42.79;97583.00;10323255;28;20050;-62
2023/09/19 18:17:48;;;;;;;1.48;0.57;;;;;;;18.46;43.24;97589.75;10337384;28;20469;-62
2023/09/19 18:23:09;;;;;;;3.30;0.70;;;;;;;18.38;43.10;97602.88;10337387;28;20070;-62
2023/09/19 18:28:29;;;;;;;3.20;0.70;;;;;;;18.28;43.63;97594.75;10336900;28;20157;-62
2023/09/19 18:33:51;;;;;;;2.70;0.75;;;;;;;18.17;44.03;97601.44;10337079;28;20480;-63
2023/09/19 18:39:19;;;;;;;1.20;0.50;;;;;;;18.09;44.62;97609.63;10336650;28;20515;-62
2023/09/19 18:44:40;;;;;;;2.63;0.65;;;;;;;18.07;44.78;97606.72;10336505;28;20066;-62
2023/09/19 18:50:02;;;;;;;2.15;0.60;;;;;;;17.98;44.92;97617.72;10321974;28;20053;-62
2023/09/19 18:55:23;;;;;;;0.95;0.60;;;;;;;17.92;45.15;97616.78;10336096;28;20070;-62
2023/09/19 19:00:44;;;;;;;1.20;0.38;;;;;;;17.81;45.55;97610.03;10336065;28;20126;-62
2023/09/19 19:06:15;;;;;;;1.70;0.57;;;;;;;17.73;45.77;97606.91;10320977;28;20081;-65
2023/09/19 19:11:36;;;;;;;2.95;0.55;;;;;;;17.62;45.71;97617.06;10335623;28;20074;-62
2023/09/19 19:16:58;;;;;;;2.85;0.60;;;;;;;17.51;46.46;97617.31;10335288;28;20073;-62
2023/09/19 19:22:20;;;;;;;1.95;0.52;;;;;;;17.40;46.53;97616.94;10320823;28;20146;-65
2023/09/19 19:27:41;;;;;;;1.90;0.40;;;;;;;17.34;46.92;97613.88;10334487;28;20073;-62
2023/09/19 19:33:02;;;;;;;2.67;0.57;;;;;;;17.28;46.98;97624.94;10334627;28;20077;-65
2023/09/19 19:38:25;;;;;;;3.10;0.80;;;;;;;17.19;47.25;97628.81;10334625;28;20066;-64
2023/09/19 19:43:46;;;;;;;2.15;0.50;;;;;;;17.12;47.53;97622.19;10334152;28;20066;-64
2023/09/19 19:49:07;;;;;;;4.25;0.50;;;;;;;17.10;47.77;97629.84;10334277;28;20420;-65
2023/09/19 19:54:30;;;;;;;2.05;0.50;;;;;;;17.04;47.84;97640.88;10334113;28;20061;-65
2023/09/19 19:59:54;;;;;;;2.83;0.70;;;;;;;17.04;47.92;97641.59;10333724;28;20062;-64
2023/09/19 20:05:16;;;;;;;2.58;0.52;;;;;;;17.04;48.11;97646.50;10333503;28;20085;-65
2023/09/19 20:10:39;;;;;;;2.47;0.95;;;;;;;16.94;48.38;97640.47;10333598;28;20092;-64
2023/09/19 20:16:00;;;;;;;4.63;0.67;;;;;;;16.77;48.64;97647.50;10332527;28;20141;-64
2023/09/19 20:21:23;;;;;;;1.92;0.68;;;;;;;16.63;49.19;97649.72;10319421;28;20042;-64
2023/09/19 20:26:43;;;;;;;3.00;0.63;;;;;;;16.52;49.35;97649.28;10333377;28;20121;-64
2023/09/19 20:32:05;;;;;;;2.95;0.60;;;;;;;16.50;49.57;97654.84;10333320;28;20069;-64
2023/09/19 20:37:25;;;;;;;3.65;0.75;;;;;;;16.47;49.61;97653.28;10336144;28;20077;-64
2023/09/19 20:42:49;;;;;;;3.20;0.80;;;;;;;16.45;50.10;97650.38;10341395;28;20097;-64
2023/09/19 20:48:10;;;;;;;1.80;0.60;;;;;;;16.37;50.17;97660.56;10341087;28;20077;-64
2023/09/19 20:53:32;;;;;;;3.53;0.73;;;;;;;16.31;50.29;97667.41;10340880;28;20085;-64
2023/09/19 20:58:52;;;;;;;2.38;0.85;;;;;;;16.23;50.66;97664.25;10325934;28;20121;-64
2023/09/19 21:04:14;;;;;;;6.82;2.58;;;;;;;16.19;50.88;97663.31;10340411;28;20065;-65
2023/09/19 21:09:37;;;;;;;2.47;0.90;;;;;;;16.13;51.08;97672.22;10340442;28;20069;-64
2023/09/19 21:14:59;;;;;;;2.88;0.60;;;;;;;16.11;51.05;97666.50;10325925;28;20077;-64
2023/09/19 21:20:22;;;;;;;2.10;0.93;;;;;;;16.12;51.24;97670.78;10339904;28;20408;-65
2023/09/19 21:25:51;;;;;;;3.20;0.75;;;;;;;16.13;51.71;97671.50;10338658;28;20121;-64
2023/09/19 21:31:14;;;;;;;3.15;0.90;;;;;;;16.12;51.67;97667.25;10326006;28;20409;-64
2023/09/19 21:36:35;;;;;;;4.95;0.90;;;;;;;16.12;51.90;97670.78;10339337;28;20074;-64
2023/09/19 21:41:57;;;;;;;2.95;0.90;;;;;;;16.14;52.18;97659.59;10324440;28;20477;-63
2023/09/19 21:47:18;;;;;;;4.20;0.90;;;;;;;16.11;52.09;97660.13;10324292;28;20461;-64
2023/09/19 21:52:39;;;;;;;4.78;0.80;;;;;;;16.10;52.17;97662.22;10323902;28;20078;-63
2023/09/19 21:58:00;;;;;;;3.10;0.70;;;;;;;16.00;52.43;97665.31;10338529;28;20050;-65
2023/09/19 22:03:22;;;;;;;1.98;0.70;;;;;;;15.94;52.68;97655.88;10338248;28;20126;-64
2023/09/19 22:08:47;;;;;;;3.97;0.93;;;;;;;15.86;53.19;97658.34;10337901;28;20077;-64
2023/09/19 22:14:07;;;;;;;3.65;1.00;;;;;;;15.77;53.17;97653.69;10323990;28;20070;-64
2023/09/19 22:19:28;;;;;;;2.20;0.90;;;;;;;15.72;53.30;97659.13;10323050;28;20133;-65
2023/09/19 22:24:51;;;;;;;2.45;0.75;;;;;;;15.69;53.55;97660.41;10337462;28;20197;-63
2023/09/19 22:30:18;;;;;;;4.75;0.70;;;;;;;15.62;53.85;97655.84;10336996;28;20104;-63
2023/09/19 22:35:40;;;;;;;2.05;0.90;;;;;;;15.54;54.05;97666.72;10336973;28;20070;-64
2023/09/19 22:41:16;;;;;;;2.67;0.80;;;;;;;15.48;54.55;97657.25;10336988;28;20497;-64
2023/09/19 22:46:37;;;;;;;3.90;1.10;;;;;;;15.43;54.35;97651.41;10324194;28;20488;-64
2023/09/19 22:51:59;;;;;;;2.78;0.80;;;;;;;15.40;54.73;97663.22;10336245;28;20071;-64
2023/09/19 22:57:20;;;;;;;2.13;0.80;;;;;;;15.35;54.87;97664.41;10321786;28;20111;-64
2023/09/19 23:02:41;;;;;;;2.25;0.98;;;;;;;15.31;55.28;97669.81;10320205;28;20065;-64
2023/09/19 23:08:08;;;;;;;3.83;0.98;;;;;;;15.23;55.42;97672.22;10335849;28;20142;-64
2023/09/19 23:13:31;;;;;;;4.32;0.80;;;;;;;15.16;55.62;97662.78;10321797;28;20097;-64
2023/09/19 23:18:52;;;;;;;2.60;0.90;;;;;;;15.11;55.64;97673.09;10335699;28;20042;-64
2023/09/19 23:24:21;;;;;;;2.72;0.90;;;;;;;15.06;56.20;97671.47;10576227;27;20372;-62
2023/09/19 23:29:42;;;;;;;2.90;0.70;;;;;;;15.04;56.43;97674.16;10575970;28;20079;-63
2023/09/19 23:35:03;;;;;;;2.90;0.75;;;;;;;15.01;56.33;97689.47;10574830;28;20478;-63
2023/09/19 23:40:27;;;;;;;3.28;0.73;;;;;;;14.98;56.69;97687.19;10575417;28;20051;-63
2023/09/19 23:45:47;;;;;;;2.83;0.80;;;;;;;14.97;57.29;97691.38;10574561;28;20481;-63
2023/09/19 23:51:09;;;;;;;1.42;0.63;;;;;;;14.94;57.36;97698.22;10574135;28;20503;-62
2023/09/19 23:56:30;;;;;;;3.20;0.63;;;;;;;14.92;57.09;97695.31;10575050;28;20067;-63
